createdAt,value
2018-01-17T00:02:24.352Z,91.31
2018-01-17T00:04:50.367Z,91.70
2018-01-17T00:07:19.582Z,91.53
2018-01-17T00:09:45.642Z,92.00
2018-01-17T00:12:13.001Z,92.19
2018-01-17T00:14:39.050Z,91.86
2018-01-17T00:17:08.173Z,92.07
2018-01-17T00:19:34.134Z,92.49
2018-01-17T00:22:02.266Z,92.57
2018-01-17T00:24:28.243Z,92.06
2018-01-17T00:26:58.102Z,91.79
2018-01-17T00:29:24.103Z,91.71
2018-01-17T00:31:51.896Z,91.95
2018-01-17T00:34:17.926Z,91.59
2018-01-17T00:36:43.890Z,91.48
2018-01-17T00:39:09.860Z,91.43
2018-01-17T00:41:35.841Z,91.46
2018-01-17T00:44:03.489Z,91.56
2018-01-17T00:46:29.504Z,91.53
2018-01-17T00:48:59.395Z,91.25
2018-01-17T00:51:25.368Z,91.22
2018-01-17T00:53:52.524Z,91.15
2018-01-17T00:56:18.459Z,91.26
2018-01-17T00:58:47.272Z,91.77
2018-01-17T01:01:13.266Z,91.48
2018-01-17T01:03:43.137Z,91.81
2018-01-17T01:06:09.083Z,91.81
2018-01-17T01:08:38.385Z,91.79
2018-01-17T01:11:04.594Z,91.58
2018-01-17T01:13:30.574Z,91.85
2018-01-17T01:15:56.552Z,92.09
2018-01-17T01:18:22.526Z,92.18
2018-01-17T01:20:48.526Z,91.37
2018-01-17T01:23:14.470Z,89.72
2018-01-17T01:25:43.666Z,89.36
2018-01-17T01:28:09.622Z,88.77
2018-01-17T01:30:38.889Z,88.10
2018-01-17T01:33:04.837Z,87.75
2018-01-17T01:35:32.621Z,88.08
2018-01-17T01:37:58.638Z,87.56
2018-01-17T01:40:28.613Z,87.93
2018-01-17T01:42:54.627Z,88.69
2018-01-17T01:45:22.572Z,89.40
2018-01-17T01:47:48.564Z,88.88
2018-01-17T01:50:14.536Z,87.67
2018-01-17T01:52:40.584Z,88.09
2018-01-17T01:55:06.496Z,87.79
2018-01-17T01:57:33.684Z,87.32
2018-01-17T01:59:59.633Z,86.18
2018-01-17T02:02:29.105Z,85.68
2018-01-17T02:04:55.117Z,85.23
2018-01-17T02:07:22.957Z,86.31
2018-01-17T02:09:48.931Z,84.51
2018-01-17T02:12:17.529Z,84.26
2018-01-17T02:14:43.478Z,84.16
2018-01-17T02:17:12.317Z,84.06
2018-01-17T02:19:38.338Z,84.76
2018-01-17T02:22:07.261Z,83.88
2018-01-17T02:24:33.238Z,84.17
2018-01-17T02:26:59.214Z,83.99
2018-01-17T02:29:25.225Z,84.20
2018-01-17T02:31:51.199Z,83.58
2018-01-17T02:34:20.073Z,81.68
2018-01-17T02:36:46.058Z,82.11
2018-01-17T02:39:15.415Z,81.25
2018-01-17T02:41:41.407Z,82.64
2018-01-17T02:44:08.718Z,83.00
2018-01-17T02:46:34.653Z,82.07
2018-01-17T02:49:03.997Z,82.87
2018-01-17T02:51:30.004Z,82.48
2018-01-17T02:53:59.080Z,82.45
2018-01-17T02:56:25.077Z,82.80
2018-01-17T02:58:54.245Z,82.92
2018-01-17T03:01:20.197Z,82.53
2018-01-17T03:03:46.190Z,83.11
2018-01-17T03:06:12.116Z,83.46
2018-01-17T03:08:38.093Z,84.40
2018-01-17T03:11:04.787Z,84.72
2018-01-17T03:13:30.750Z,84.00
2018-01-17T03:15:59.884Z,82.03
2018-01-17T03:18:25.887Z,81.94
2018-01-17T03:20:55.412Z,82.02
2018-01-17T03:23:21.387Z,80.75
2018-01-17T03:25:48.512Z,80.05
2018-01-17T03:28:14.501Z,79.64
2018-01-17T03:30:43.945Z,80.24
2018-01-17T03:33:09.906Z,80.01
2018-01-17T03:35:37.669Z,80.11
2018-01-17T03:38:03.628Z,79.55
2018-01-17T03:40:29.623Z,80.79
2018-01-17T03:42:55.596Z,80.09
2018-01-17T03:45:21.562Z,79.96
2018-01-17T03:47:50.973Z,79.90
2018-01-17T03:50:16.948Z,78.11
2018-01-17T03:52:46.090Z,76.85
2018-01-17T03:55:12.058Z,77.59
2018-01-17T03:57:39.062Z,77.11
2018-01-17T04:00:05.076Z,76.40
2018-01-17T04:02:34.491Z,79.40
2018-01-17T04:05:00.453Z,82.70
2018-01-17T04:07:28.305Z,86.45
2018-01-17T04:09:54.363Z,87.87
2018-01-17T04:12:23.015Z,89.03
2018-01-17T04:14:48.989Z,88.35
2018-01-17T04:17:15.000Z,89.79
2018-01-17T04:19:40.988Z,88.96
2018-01-17T04:22:06.991Z,88.72
2018-01-17T04:24:35.971Z,88.06
2018-01-17T04:27:02.080Z,87.48
2018-01-17T04:29:29.839Z,86.48
2018-01-17T04:31:55.796Z,86.37
2018-01-17T04:34:25.310Z,86.09
2018-01-17T04:36:51.292Z,86.13
2018-01-17T04:39:19.010Z,87.19
2018-01-17T04:41:44.993Z,86.93
2018-01-17T04:44:13.808Z,87.10
2018-01-17T04:46:39.775Z,87.16
2018-01-17T04:49:09.198Z,87.28
2018-01-17T04:51:35.139Z,85.91
2018-01-17T04:54:01.100Z,85.77
2018-01-17T04:56:27.100Z,86.33
2018-01-17T04:58:53.112Z,85.70
2018-01-17T05:01:20.309Z,86.51
2018-01-17T05:03:46.278Z,87.32
2018-01-17T05:06:15.783Z,86.98
2018-01-17T05:08:41.761Z,87.93
2018-01-17T05:11:10.727Z,87.75
2018-01-17T05:13:36.729Z,87.81
2018-01-17T05:16:06.235Z,87.48
2018-01-17T05:18:32.194Z,86.96
2018-01-17T05:20:59.455Z,85.45
2018-01-17T05:23:25.383Z,84.14
2018-01-17T05:25:55.242Z,83.36
2018-01-17T05:28:21.373Z,83.10
2018-01-17T05:30:47.336Z,82.20
2018-01-17T05:33:13.369Z,83.09
2018-01-17T05:35:39.325Z,83.11
2018-01-17T05:38:05.603Z,84.33
2018-01-17T05:40:31.566Z,84.69
2018-01-17T05:43:01.117Z,85.66
2018-01-17T05:45:27.050Z,85.87
2018-01-17T05:47:55.218Z,86.19
2018-01-17T05:50:21.212Z,87.07
2018-01-17T05:52:50.781Z,87.45
2018-01-17T05:55:16.832Z,87.85
2018-01-17T05:57:44.521Z,86.77
2018-01-17T06:00:10.515Z,85.77
2018-01-17T06:02:39.772Z,84.36
2018-01-17T06:05:05.771Z,84.82
2018-01-17T06:07:31.765Z,83.92
2018-01-17T06:09:57.804Z,82.11
2018-01-17T06:12:23.887Z,81.23
2018-01-17T06:14:51.549Z,80.85
2018-01-17T06:17:17.526Z,80.01
2018-01-17T06:19:46.562Z,79.31
2018-01-17T06:22:12.578Z,78.91
2018-01-17T06:24:40.488Z,80.05
2018-01-17T06:27:06.449Z,78.34
2018-01-17T06:29:35.487Z,78.33
2018-01-17T06:32:01.496Z,78.46
2018-01-17T06:34:31.282Z,78.48
2018-01-17T06:36:57.245Z,79.09
2018-01-17T06:39:24.538Z,79.16
2018-01-17T06:41:50.511Z,79.24
2018-01-17T06:44:16.482Z,79.80
2018-01-17T06:46:42.438Z,80.08
2018-01-17T06:49:08.349Z,81.65
2018-01-17T06:51:36.361Z,81.79
2018-01-17T06:54:02.376Z,87.81
2018-01-17T06:56:31.396Z,90.76
2018-01-17T06:58:57.366Z,92.31
2018-01-17T07:01:26.583Z,91.08
2018-01-17T07:03:52.511Z,90.43
2018-01-17T07:06:20.868Z,86.85
2018-01-17T07:08:46.821Z,83.68
2018-01-17T07:11:14.773Z,81.03
2018-01-17T07:13:40.800Z,79.46
2018-01-17T07:16:11.102Z,79.27
2018-01-17T07:18:37.080Z,79.32
2018-01-17T07:21:03.028Z,77.11
2018-01-17T07:23:29.043Z,75.96
2018-01-17T07:25:54.989Z,76.93
2018-01-17T07:28:22.378Z,76.58
2018-01-17T07:30:48.322Z,76.03
2018-01-17T07:33:17.488Z,77.91
2018-01-17T07:35:43.475Z,82.49
2018-01-17T07:38:12.577Z,82.45
2018-01-17T07:40:38.531Z,81.23
2018-01-17T07:43:05.739Z,79.98
2018-01-17T07:45:31.693Z,79.93
2018-01-17T07:48:00.873Z,78.55
2018-01-17T07:50:26.821Z,75.23
2018-01-17T07:52:56.033Z,75.27
2018-01-17T07:55:22.042Z,75.79
2018-01-17T07:57:48.517Z,75.32
2018-01-17T08:00:14.484Z,73.98
2018-01-17T08:02:40.441Z,74.63
2018-01-17T08:05:06.897Z,73.45
2018-01-17T08:07:32.877Z,74.68
2018-01-17T08:10:01.923Z,74.38
2018-01-17T08:12:27.884Z,75.49
2018-01-17T08:14:56.337Z,74.91
2018-01-17T08:17:22.273Z,76.09
2018-01-17T08:19:51.701Z,76.32
2018-01-17T08:22:17.680Z,76.88
2018-01-17T08:24:45.497Z,75.76
2018-01-17T08:27:11.438Z,76.41
2018-01-17T08:29:41.394Z,76.85
2018-01-17T08:32:07.341Z,75.59
2018-01-17T08:34:33.294Z,75.94
2018-01-17T08:36:59.214Z,76.49
2018-01-17T08:39:25.162Z,74.75
2018-01-17T08:41:52.067Z,75.77
2018-01-17T08:44:18.046Z,74.96
2018-01-17T08:46:47.065Z,76.69
2018-01-17T08:49:13.075Z,76.61
2018-01-17T08:51:42.225Z,76.76
2018-01-17T08:54:08.179Z,77.67
2018-01-17T08:56:36.298Z,78.26
2018-01-17T08:59:02.283Z,76.84
2018-01-17T09:01:31.531Z,78.03
2018-01-17T09:03:57.442Z,78.22
2018-01-17T09:06:26.653Z,79.48
2018-01-17T09:08:52.655Z,83.75
2018-01-17T09:11:18.608Z,87.49
2018-01-17T09:13:44.585Z,90.42
2018-01-17T09:16:10.528Z,91.94
2018-01-17T09:18:38.154Z,92.73
2018-01-17T09:21:04.081Z,93.17
2018-01-17T09:23:31.870Z,93.65
2018-01-17T09:25:57.823Z,94.57
2018-01-17T09:28:26.787Z,94.69
2018-01-17T09:30:52.749Z,94.98
2018-01-17T09:33:21.488Z,94.34
2018-01-17T09:35:47.490Z,93.13
2018-01-17T09:38:17.093Z,92.28
2018-01-17T09:40:43.031Z,90.14
2018-01-17T09:43:11.435Z,88.64
2018-01-17T09:45:37.428Z,86.42
2018-01-17T09:48:03.480Z,85.08
2018-01-17T09:50:29.406Z,85.39
2018-01-17T09:52:55.370Z,84.57
2018-01-17T09:55:24.359Z,83.39
2018-01-17T09:57:50.310Z,82.21
2018-01-17T10:00:17.585Z,81.01
2018-01-17T10:02:43.565Z,79.82
2018-01-17T10:05:13.076Z,79.01
2018-01-17T10:07:39.022Z,77.14
2018-01-17T10:10:06.706Z,78.19
2018-01-17T10:12:32.691Z,77.69
2018-01-17T10:15:02.262Z,76.85
2018-01-17T10:17:28.211Z,78.50
2018-01-17T10:19:57.336Z,78.42
2018-01-17T10:22:23.324Z,75.14
2018-01-17T10:24:49.246Z,74.96
2018-01-17T10:27:15.232Z,75.18
2018-01-17T10:29:41.189Z,76.65
2018-01-17T10:32:08.950Z,77.79
2018-01-17T10:34:35.019Z,78.01
2018-01-17T10:37:04.268Z,74.46
2018-01-17T10:39:30.218Z,72.69
2018-01-17T10:41:59.312Z,74.07
2018-01-17T10:44:25.233Z,75.29
2018-01-17T10:46:52.601Z,74.97
2018-01-17T10:49:18.585Z,76.78
2018-01-17T10:51:47.806Z,77.18
2018-01-17T10:54:13.762Z,76.21
2018-01-17T10:56:41.626Z,76.38
2018-01-17T10:59:07.573Z,76.77
2018-01-17T11:01:33.518Z,76.61
2018-01-17T11:03:59.451Z,77.33
2018-01-17T11:06:25.408Z,79.15
2018-01-17T11:08:54.796Z,80.44
2018-01-17T11:11:20.768Z,79.42
2018-01-17T11:13:49.834Z,75.07
2018-01-17T11:16:15.792Z,73.05
2018-01-17T11:18:42.945Z,73.56
2018-01-17T11:21:08.923Z,70.84
2018-01-17T11:23:38.255Z,70.98
2018-01-17T11:26:04.182Z,73.58
2018-01-17T11:28:34.106Z,73.86
2018-01-17T11:31:00.100Z,75.22
2018-01-17T11:33:27.385Z,75.12
2018-01-17T11:35:53.366Z,75.45
2018-01-17T11:38:19.380Z,73.52
2018-01-17T11:40:45.304Z,71.87
2018-01-17T11:43:11.291Z,70.03
2018-01-17T11:45:40.478Z,66.41
2018-01-17T11:48:06.476Z,63.30
2018-01-17T11:50:33.354Z,64.47
2018-01-17T11:52:59.294Z,68.42
2018-01-17T11:55:28.653Z,69.03
2018-01-17T11:57:54.575Z,71.27
2018-01-17T12:00:23.756Z,72.19
2018-01-17T12:02:49.753Z,72.16
2018-01-17T12:05:17.488Z,73.02
2018-01-17T12:07:43.473Z,72.30
2018-01-17T12:10:13.226Z,73.46
2018-01-17T12:12:39.348Z,74.11
2018-01-17T12:15:05.300Z,73.63
2018-01-17T12:17:31.293Z,75.05
2018-01-17T12:19:57.234Z,74.82
2018-01-17T12:22:24.171Z,75.76
2018-01-17T12:24:50.165Z,75.30
2018-01-17T12:27:20.011Z,74.96
2018-01-17T12:29:46.003Z,74.47
2018-01-17T12:32:13.530Z,74.59
2018-01-17T12:34:39.483Z,75.09
2018-01-17T12:37:08.588Z,75.50
2018-01-17T12:39:34.569Z,74.16
2018-01-17T12:42:02.610Z,73.81
2018-01-17T12:44:28.518Z,74.11
2018-01-17T12:46:58.130Z,73.71
2018-01-17T12:49:24.072Z,74.91
2018-01-17T12:51:50.086Z,76.17
2018-01-17T12:54:16.051Z,76.36
2018-01-17T12:56:41.999Z,76.90
2018-01-17T12:59:11.169Z,75.77
2018-01-17T13:01:37.118Z,76.66
2018-01-17T13:04:04.762Z,74.52
2018-01-17T13:06:30.746Z,74.83
2018-01-17T13:08:58.816Z,72.99
2018-01-17T13:11:24.830Z,70.51
2018-01-17T13:13:54.188Z,67.37
2018-01-17T13:16:20.208Z,67.31
2018-01-17T13:18:49.064Z,66.56
2018-01-17T13:21:15.056Z,67.98
2018-01-17T13:23:43.873Z,66.93
2018-01-17T13:26:09.857Z,67.37
2018-01-17T13:28:35.798Z,67.34
2018-01-17T13:31:01.798Z,68.15
2018-01-17T13:33:27.734Z,68.14
2018-01-17T13:35:54.602Z,68.43
2018-01-17T13:38:20.573Z,68.69
2018-01-17T13:40:49.587Z,69.10
2018-01-17T13:43:15.594Z,68.49
2018-01-17T13:45:44.779Z,69.97
2018-01-17T13:48:10.765Z,69.54
2018-01-17T13:50:39.493Z,70.15
2018-01-17T13:53:05.460Z,70.50
2018-01-17T13:55:34.122Z,71.39
2018-01-17T13:58:00.107Z,72.79
2018-01-17T14:00:30.010Z,73.68
2018-01-17T14:02:56.000Z,74.27
2018-01-17T14:05:21.998Z,73.92
2018-01-17T14:07:47.955Z,73.48
2018-01-17T14:10:13.902Z,73.70
2018-01-17T14:12:40.489Z,73.52
2018-01-17T14:15:06.483Z,73.64
2018-01-17T14:17:35.774Z,74.29
2018-01-17T14:20:01.736Z,75.08
2018-01-17T14:22:29.326Z,74.76
2018-01-17T14:24:55.312Z,75.57
2018-01-17T14:27:24.601Z,75.93
2018-01-17T14:29:50.598Z,75.61
2018-01-17T14:32:20.584Z,75.71
2018-01-17T14:34:46.578Z,76.38
2018-01-17T14:37:13.916Z,76.07
2018-01-17T14:39:39.896Z,75.89
2018-01-17T14:42:05.909Z,76.33
2018-01-17T14:44:31.917Z,75.66
2018-01-17T14:46:57.848Z,74.90
2018-01-17T14:49:25.332Z,75.26
2018-01-17T14:51:51.324Z,73.77
2018-01-17T14:54:20.748Z,74.25
2018-01-17T14:56:46.745Z,72.82
2018-01-17T14:59:15.610Z,73.31
2018-01-17T15:01:41.581Z,73.54
2018-01-17T15:04:10.354Z,73.25
2018-01-17T15:06:36.324Z,73.65
2018-01-17T15:09:04.101Z,74.31
2018-01-17T15:11:30.122Z,74.03
2018-01-17T15:13:59.069Z,74.04
2018-01-17T15:16:25.030Z,75.05
2018-01-17T15:18:50.989Z,75.35
2018-01-17T15:21:16.967Z,75.20
2018-01-17T15:23:42.917Z,74.68
2018-01-17T15:26:12.024Z,74.62
2018-01-17T15:28:38.006Z,74.59
2018-01-17T15:31:05.419Z,74.87
2018-01-17T15:33:31.386Z,74.19
2018-01-17T15:36:00.905Z,73.34
2018-01-17T15:38:26.868Z,73.25
2018-01-17T15:40:55.632Z,74.28
2018-01-17T15:43:21.630Z,74.07
2018-01-17T15:45:49.552Z,73.02
2018-01-17T15:48:15.541Z,73.37
2018-01-17T15:50:45.058Z,73.87
2018-01-17T15:53:11.019Z,74.27
2018-01-17T15:55:37.031Z,75.63
2018-01-17T15:58:03.136Z,76.42
2018-01-17T16:00:29.110Z,76.64
2018-01-17T16:02:56.610Z,77.48
2018-01-17T16:05:22.618Z,78.21
2018-01-17T16:07:51.482Z,79.38
2018-01-17T16:10:17.414Z,80.58
2018-01-17T16:12:45.069Z,82.90
2018-01-17T16:15:11.070Z,84.18
2018-01-17T16:17:40.627Z,81.88
2018-01-17T16:20:06.608Z,81.69
2018-01-17T16:22:36.300Z,80.23
2018-01-17T16:25:02.292Z,79.36
2018-01-17T16:27:29.541Z,78.96
2018-01-17T16:29:55.523Z,77.69
2018-01-17T16:32:21.510Z,77.81
2018-01-17T16:34:47.477Z,77.39
2018-01-17T16:37:13.496Z,76.41
2018-01-17T16:39:42.878Z,76.37
2018-01-17T16:42:08.812Z,76.28
2018-01-17T16:44:36.204Z,75.75
2018-01-17T16:47:02.186Z,75.49
2018-01-17T16:49:31.400Z,76.22
2018-01-17T16:51:57.356Z,74.90
2018-01-17T16:54:25.554Z,75.52
2018-01-17T16:56:51.572Z,75.62
2018-01-17T16:59:20.930Z,74.71
2018-01-17T17:01:46.906Z,73.56
2018-01-17T17:07:03.096Z,72.64
2018-01-17T17:09:29.029Z,73.71
2018-01-17T17:11:55.019Z,73.29
2018-01-17T17:14:20.983Z,73.36
2018-01-17T17:16:47.057Z,73.31
2018-01-17T17:19:13.098Z,72.69
2018-01-17T17:21:39.020Z,73.07
2018-01-17T17:24:04.969Z,73.80
2018-01-17T17:26:30.964Z,74.10
2018-01-17T17:28:56.918Z,74.11
2018-01-17T17:31:22.862Z,74.82
2018-01-17T17:33:48.866Z,75.73
2018-01-17T17:36:14.826Z,76.76
2018-01-17T17:38:40.772Z,77.38
2018-01-17T17:41:06.712Z,77.77
2018-01-17T17:43:32.731Z,77.99
2018-01-17T17:45:58.750Z,77.53
2018-01-17T17:48:24.722Z,77.10
2018-01-17T17:50:50.669Z,76.97
2018-01-17T17:53:16.631Z,77.23
2018-01-17T17:55:42.617Z,76.77
2018-01-17T17:58:08.618Z,75.77
2018-01-17T18:00:34.628Z,75.99
2018-01-17T18:03:01.538Z,76.41
2018-01-17T18:05:27.549Z,76.16
2018-01-17T18:07:56.766Z,76.22
2018-01-17T18:10:22.761Z,75.97
2018-01-17T18:12:50.470Z,76.07
2018-01-17T18:15:16.412Z,75.87
2018-01-17T18:17:46.374Z,76.47
2018-01-17T18:20:12.383Z,76.33
2018-01-17T18:22:38.336Z,76.11
2018-01-17T18:25:04.308Z,77.06
2018-01-17T18:27:30.358Z,77.50
2018-01-17T18:29:57.330Z,77.80
2018-01-17T18:32:23.310Z,77.33
2018-01-17T18:34:52.470Z,77.54
2018-01-17T18:37:18.479Z,77.11
2018-01-17T18:39:46.460Z,76.43
2018-01-17T18:42:12.440Z,76.60
2018-01-17T18:44:41.958Z,76.12
2018-01-17T18:47:07.968Z,75.69
2018-01-17T18:49:35.859Z,75.92
2018-01-17T18:52:01.836Z,76.18
2018-01-17T18:54:30.578Z,76.23
2018-01-17T18:56:56.582Z,76.25
2018-01-17T18:59:22.578Z,76.00
2018-01-17T19:01:48.515Z,76.13
2018-01-17T19:04:14.509Z,75.47
2018-01-17T19:06:42.199Z,75.33
2018-01-17T19:09:08.191Z,75.74
2018-01-17T19:11:37.660Z,76.08
2018-01-17T19:14:03.632Z,75.39
2018-01-17T19:16:31.733Z,75.08
2018-01-17T19:18:57.686Z,75.76
2018-01-17T19:21:26.280Z,74.80
2018-01-17T19:23:52.269Z,74.33
2018-01-17T19:26:20.909Z,74.10
2018-01-17T19:28:46.902Z,73.54
2018-01-17T19:31:16.622Z,73.51
2018-01-17T19:33:42.632Z,74.32
2018-01-17T19:36:08.610Z,74.91
2018-01-17T19:38:34.597Z,75.39
2018-01-17T19:41:00.615Z,75.89
2018-01-17T19:43:28.132Z,76.51
2018-01-17T19:45:54.153Z,76.45
2018-01-17T19:48:23.250Z,76.28
2018-01-17T19:50:49.226Z,76.52
2018-01-17T19:53:17.313Z,77.08
2018-01-17T19:55:43.269Z,76.33
2018-01-17T19:58:12.610Z,75.72
2018-01-17T20:00:38.602Z,75.06
2018-01-17T20:03:06.998Z,74.82
2018-01-17T20:05:32.944Z,74.98
2018-01-17T20:08:02.073Z,75.08
2018-01-17T20:10:28.076Z,74.98
2018-01-17T20:12:54.052Z,75.63
2018-01-17T20:15:20.006Z,75.89
2018-01-17T20:17:45.968Z,75.84
2018-01-17T20:20:13.070Z,76.13
2018-01-17T20:22:45.122Z,76.59
2018-01-17T20:25:11.086Z,76.04
2018-01-17T20:27:37.096Z,76.40
2018-01-17T20:30:03.043Z,76.47
2018-01-17T20:32:29.002Z,75.80
2018-01-17T20:34:58.859Z,76.40
2018-01-17T20:37:24.835Z,76.37
2018-01-17T20:39:51.948Z,75.29
2018-01-17T20:42:17.897Z,75.14
2018-01-17T20:44:47.066Z,75.50
2018-01-17T20:47:14.679Z,75.67
2018-01-17T20:49:40.712Z,76.24
2018-01-17T20:52:06.693Z,76.58
2018-01-17T20:54:32.650Z,76.96
2018-01-17T20:56:58.618Z,76.28
2018-01-17T20:59:24.638Z,76.93
2018-01-17T21:01:53.692Z,76.54
2018-01-17T21:04:19.628Z,76.18
2018-01-17T21:06:48.812Z,75.95
2018-01-17T21:09:14.794Z,76.24
2018-01-17T21:11:44.336Z,76.40
2018-01-17T21:14:10.325Z,77.00
2018-01-17T21:16:37.330Z,77.30
2018-01-17T21:19:03.306Z,77.22
2018-01-17T21:21:32.868Z,77.51
2018-01-17T21:23:58.795Z,77.20
2018-01-17T21:26:24.723Z,77.65
2018-01-17T21:28:50.699Z,77.75
2018-01-17T21:31:16.702Z,77.91
2018-01-17T21:33:43.522Z,78.29
2018-01-17T21:36:09.474Z,78.78
2018-01-17T21:38:38.154Z,78.95
2018-01-17T21:41:04.162Z,78.61
2018-01-17T21:43:38.791Z,79.05
2018-01-17T21:46:04.788Z,79.23
2018-01-17T21:48:30.715Z,79.59
2018-01-17T21:50:56.681Z,80.82
2018-01-17T21:53:22.667Z,82.05
2018-01-17T21:55:48.639Z,82.49
2018-01-17T21:58:18.262Z,82.59
2018-01-17T22:00:44.218Z,82.97
2018-01-17T22:03:10.201Z,82.91
2018-01-17T22:05:36.130Z,83.41
2018-01-17T22:08:02.133Z,83.42
2018-01-17T22:10:29.211Z,83.53
2018-01-17T22:12:55.150Z,84.48
2018-01-17T22:15:24.367Z,85.53
2018-01-17T22:17:50.332Z,87.17
2018-01-17T22:20:18.026Z,88.16
2018-01-17T22:22:44.011Z,88.73
2018-01-17T22:25:13.038Z,88.99
2018-01-17T22:27:39.039Z,88.98
2018-01-17T22:30:08.598Z,89.22
2018-01-17T22:32:34.548Z,89.47
2018-01-17T22:35:02.622Z,89.52
2018-01-17T22:37:28.598Z,89.54
2018-01-17T22:39:54.600Z,89.75
2018-01-17T22:42:20.578Z,89.48
2018-01-17T22:44:46.540Z,89.09
2018-01-17T22:47:17.281Z,89.06
2018-01-17T22:49:43.286Z,89.31
2018-01-17T22:52:09.254Z,89.30
2018-01-17T22:54:35.226Z,89.32
2018-01-17T22:57:04.425Z,89.56
2018-01-17T22:59:30.423Z,89.22
2018-01-17T23:01:59.408Z,88.52
2018-01-17T23:04:25.408Z,88.37
2018-01-17T23:06:57.813Z,88.40
2018-01-17T23:09:23.838Z,88.51
2018-01-17T23:11:49.803Z,88.00
2018-01-17T23:14:15.743Z,88.17
2018-01-17T23:16:41.713Z,88.49
2018-01-17T23:19:07.722Z,88.16
2018-01-17T23:21:33.747Z,87.93
2018-01-17T23:23:59.700Z,87.69
2018-01-17T23:26:25.660Z,88.12
2018-01-17T23:28:54.712Z,87.12
2018-01-17T23:31:20.689Z,87.04
2018-01-17T23:33:49.903Z,86.71
2018-01-17T23:36:15.927Z,86.89
2018-01-17T23:38:45.419Z,86.46
2018-01-17T23:41:11.374Z,87.09
2018-01-17T23:43:38.887Z,87.25
2018-01-17T23:46:04.876Z,87.67
2018-01-17T23:48:33.924Z,87.82
2018-01-17T23:50:59.890Z,88.05
2018-01-17T23:53:25.868Z,88.36
2018-01-17T23:55:51.843Z,88.36
2018-01-17T23:58:17.789Z,87.94
